X  Close Metar Aviation Weather Data     EGLF Farnborough
Temperature
12°C Temperature
8°C Dewpoint
77% Humidity



Wind
13 MPH
21 KM/H
6 M/S
11 KTS



240°
WSW
Current Conditions

Clear Clear
Pressure 1014.92 (hPa) - 29.97 (inHg)
Visibility 6.2 (mile) - 10 (km)
Airport
Airport-code EGLF

Location: Farnborough
Distance: 5 (mi)

Metar:
EGLF 060050Z AUTO 24011KT 9999 NCD 12/08 Q1015

Time: 06-07-2020 01:50 BST